sensor_id;sensor_type;location;lat;lon;timestamp;P1;durP1;ratioP1;P2;durP2;ratioP2
69529;SDS011;56727;47.188;8.840;2023-12-28T00:01:24;5.70;;;1.40;;
69529;SDS011;56727;47.188;8.840;2023-12-28T00:03:50;5.30;;;0.90;;
69529;SDS011;56727;47.188;8.840;2023-12-28T00:06:19;5.20;;;1.10;;
69529;SDS011;56727;47.188;8.840;2023-12-28T00:08:46;4.30;;;1.20;;
69529;SDS011;56727;47.188;8.840;2023-12-28T00:11:12;5.00;;;1.00;;
69529;SDS011;56727;47.188;8.840;2023-12-28T00:13:38;4.50;;;0.90;;
69529;SDS011;56727;47.188;8.840;2023-12-28T00:16:04;4.50;;;1.00;;
69529;SDS011;56727;47.188;8.840;2023-12-28T00:18:31;4.70;;;1.20;;
69529;SDS011;56727;47.188;8.840;2023-12-28T00:20:57;5.80;;;1.10;;
69529;SDS011;56727;47.188;8.840;2023-12-28T00:23:22;5.50;;;1.20;;
69529;SDS011;56727;47.188;8.840;2023-12-28T00:25:48;5.10;;;1.20;;
69529;SDS011;56727;47.188;8.840;2023-12-28T00:28:14;5.40;;;1.10;;
69529;SDS011;56727;47.188;8.840;2023-12-28T00:30:40;5.20;;;1.20;;
69529;SDS011;56727;47.188;8.840;2023-12-28T00:33:06;4.70;;;1.30;;
69529;SDS011;56727;47.188;8.840;2023-12-28T00:35:32;4.30;;;1.00;;
69529;SDS011;56727;47.188;8.840;2023-12-28T00:37:57;4.70;;;1.00;;
69529;SDS011;56727;47.188;8.840;2023-12-28T00:40:23;4.50;;;1.00;;
69529;SDS011;56727;47.188;8.840;2023-12-28T00:42:49;4.60;;;1.10;;
69529;SDS011;56727;47.188;8.840;2023-12-28T00:45:15;4.70;;;1.20;;
69529;SDS011;56727;47.188;8.840;2023-12-28T00:47:41;4.50;;;1.30;;
69529;SDS011;56727;47.188;8.840;2023-12-28T00:50:09;6.10;;;1.60;;
69529;SDS011;56727;47.188;8.840;2023-12-28T00:52:41;5.30;;;1.20;;
69529;SDS011;56727;47.188;8.840;2023-12-28T00:55:07;5.30;;;1.30;;
69529;SDS011;56727;47.188;8.840;2023-12-28T00:57:34;5.60;;;1.40;;
69529;SDS011;56727;47.188;8.840;2023-12-28T01:00:00;5.50;;;1.20;;
69529;SDS011;56727;47.188;8.840;2023-12-28T01:02:27;5.30;;;1.50;;
69529;SDS011;56727;47.188;8.840;2023-12-28T01:04:53;5.40;;;1.20;;
69529;SDS011;56727;47.188;8.840;2023-12-28T01:07:19;6.80;;;1.30;;
69529;SDS011;56727;47.188;8.840;2023-12-28T01:09:45;5.30;;;1.30;;
69529;SDS011;56727;47.188;8.840;2023-12-28T01:12:10;5.30;;;1.40;;
69529;SDS011;56727;47.188;8.840;2023-12-28T01:14:36;5.60;;;1.30;;
69529;SDS011;56727;47.188;8.840;2023-12-28T01:17:02;5.30;;;1.40;;
69529;SDS011;56727;47.188;8.840;2023-12-28T01:19:28;4.90;;;1.30;;
69529;SDS011;56727;47.188;8.840;2023-12-28T01:21:54;5.90;;;1.50;;
69529;SDS011;56727;47.188;8.840;2023-12-28T01:24:20;5.00;;;0.90;;
69529;SDS011;56727;47.188;8.840;2023-12-28T01:26:46;6.20;;;1.30;;
69529;SDS011;56727;47.188;8.840;2023-12-28T01:29:11;5.50;;;1.40;;
69529;SDS011;56727;47.188;8.840;2023-12-28T01:31:37;5.90;;;1.40;;
69529;SDS011;56727;47.188;8.840;2023-12-28T01:34:04;6.00;;;1.70;;
69529;SDS011;56727;47.188;8.840;2023-12-28T01:36:30;7.30;;;1.70;;
69529;SDS011;56727;47.188;8.840;2023-12-28T01:38:56;6.20;;;1.50;;
69529;SDS011;56727;47.188;8.840;2023-12-28T01:41:22;5.00;;;1.40;;
69529;SDS011;56727;47.188;8.840;2023-12-28T01:43:48;5.10;;;1.30;;
69529;SDS011;56727;47.188;8.840;2023-12-28T01:46:17;4.80;;;1.20;;
69529;SDS011;56727;47.188;8.840;2023-12-28T01:48:46;3.70;;;0.90;;
69529;SDS011;56727;47.188;8.840;2023-12-28T01:51:14;3.80;;;0.80;;
69529;SDS011;56727;47.188;8.840;2023-12-28T01:53:42;3.70;;;0.60;;
69529;SDS011;56727;47.188;8.840;2023-12-28T01:56:09;3.80;;;0.70;;
69529;SDS011;56727;47.188;8.840;2023-12-28T01:58:37;4.30;;;0.80;;
69529;SDS011;56727;47.188;8.840;2023-12-28T02:01:05;3.90;;;0.90;;
69529;SDS011;56727;47.188;8.840;2023-12-28T02:03:32;4.50;;;0.70;;
69529;SDS011;56727;47.188;8.840;2023-12-28T02:06:00;5.00;;;0.90;;
69529;SDS011;56727;47.188;8.840;2023-12-28T02:08:27;3.30;;;0.70;;
69529;SDS011;56727;47.188;8.840;2023-12-28T02:10:53;4.30;;;0.70;;
69529;SDS011;56727;47.188;8.840;2023-12-28T02:13:21;4.00;;;0.80;;
69529;SDS011;56727;47.188;8.840;2023-12-28T02:18:43;2.90;;;0.50;;
69529;SDS011;56727;47.188;8.840;2023-12-28T02:21:12;3.50;;;0.40;;
69529;SDS011;56727;47.188;8.840;2023-12-28T02:23:39;2.90;;;0.70;;
69529;SDS011;56727;47.188;8.840;2023-12-28T02:26:11;3.80;;;0.70;;
69529;SDS011;56727;47.188;8.840;2023-12-28T02:28:37;4.10;;;0.50;;
69529;SDS011;56727;47.188;8.840;2023-12-28T02:31:04;3.40;;;0.70;;
69529;SDS011;56727;47.188;8.840;2023-12-28T02:33:46;3.30;;;0.60;;
69529;SDS011;56727;47.188;8.840;2023-12-28T02:36:18;5.20;;;0.80;;
69529;SDS011;56727;47.188;8.840;2023-12-28T02:38:49;3.70;;;0.80;;
69529;SDS011;56727;47.188;8.840;2023-12-28T02:41:18;5.40;;;0.90;;
69529;SDS011;56727;47.188;8.840;2023-12-28T02:43:46;4.90;;;1.10;;
69529;SDS011;56727;47.188;8.840;2023-12-28T02:46:14;4.10;;;0.60;;
69529;SDS011;56727;47.188;8.840;2023-12-28T02:48:40;3.60;;;0.70;;
69529;SDS011;56727;47.188;8.840;2023-12-28T02:51:06;3.70;;;0.60;;
69529;SDS011;56727;47.188;8.840;2023-12-28T02:53:31;3.80;;;0.70;;
69529;SDS011;56727;47.188;8.840;2023-12-28T02:55:57;4.50;;;0.60;;
69529;SDS011;56727;47.188;8.840;2023-12-28T02:58:23;3.80;;;0.50;;
69529;SDS011;56727;47.188;8.840;2023-12-28T03:00:49;2.40;;;0.50;;
69529;SDS011;56727;47.188;8.840;2023-12-28T03:03:15;3.40;;;0.60;;
69529;SDS011;56727;47.188;8.840;2023-12-28T03:05:40;4.80;;;0.50;;
69529;SDS011;56727;47.188;8.840;2023-12-28T03:08:06;4.40;;;0.80;;
69529;SDS011;56727;47.188;8.840;2023-12-28T03:10:32;4.20;;;0.70;;
69529;SDS011;56727;47.188;8.840;2023-12-28T03:12:58;3.70;;;0.70;;
69529;SDS011;56727;47.188;8.840;2023-12-28T03:15:24;3.80;;;0.60;;
69529;SDS011;56727;47.188;8.840;2023-12-28T03:17:50;3.10;;;0.60;;
69529;SDS011;56727;47.188;8.840;2023-12-28T03:20:16;5.00;;;0.80;;
69529;SDS011;56727;47.188;8.840;2023-12-28T03:22:42;4.80;;;0.90;;
69529;SDS011;56727;47.188;8.840;2023-12-28T03:25:08;5.10;;;1.10;;
69529;SDS011;56727;47.188;8.840;2023-12-28T03:27:33;4.40;;;1.10;;
69529;SDS011;56727;47.188;8.840;2023-12-28T03:29:59;4.30;;;0.90;;
69529;SDS011;56727;47.188;8.840;2023-12-28T03:32:25;5.00;;;1.10;;
69529;SDS011;56727;47.188;8.840;2023-12-28T03:34:51;5.00;;;1.10;;
69529;SDS011;56727;47.188;8.840;2023-12-28T03:37:17;5.50;;;1.40;;
69529;SDS011;56727;47.188;8.840;2023-12-28T03:39:42;6.10;;;1.20;;
69529;SDS011;56727;47.188;8.840;2023-12-28T03:42:09;5.80;;;1.10;;
69529;SDS011;56727;47.188;8.840;2023-12-28T03:44:35;5.30;;;0.90;;
69529;SDS011;56727;47.188;8.840;2023-12-28T03:47:01;5.10;;;1.10;;
69529;SDS011;56727;47.188;8.840;2023-12-28T03:49:27;5.40;;;1.10;;
69529;SDS011;56727;47.188;8.840;2023-12-28T03:51:52;3.90;;;0.80;;
69529;SDS011;56727;47.188;8.840;2023-12-28T03:54:19;6.00;;;1.20;;
69529;SDS011;56727;47.188;8.840;2023-12-28T03:56:46;3.90;;;0.70;;
69529;SDS011;56727;47.188;8.840;2023-12-28T03:59:12;4.80;;;1.00;;
69529;SDS011;56727;47.188;8.840;2023-12-28T04:01:40;4.40;;;0.80;;
69529;SDS011;56727;47.188;8.840;2023-12-28T04:04:06;3.70;;;0.90;;
69529;SDS011;56727;47.188;8.840;2023-12-28T04:06:32;4.20;;;0.90;;
69529;SDS011;56727;47.188;8.840;2023-12-28T04:08:58;3.70;;;0.70;;
69529;SDS011;56727;47.188;8.840;2023-12-28T04:11:24;4.10;;;0.90;;
69529;SDS011;56727;47.188;8.840;2023-12-28T04:13:50;4.30;;;0.90;;
69529;SDS011;56727;47.188;8.840;2023-12-28T04:16:16;3.20;;;0.70;;
69529;SDS011;56727;47.188;8.840;2023-12-28T04:18:42;3.40;;;0.70;;
69529;SDS011;56727;47.188;8.840;2023-12-28T04:21:09;2.40;;;0.50;;
69529;SDS011;56727;47.188;8.840;2023-12-28T04:23:37;2.60;;;0.50;;
69529;SDS011;56727;47.188;8.840;2023-12-28T04:26:03;2.20;;;0.50;;
69529;SDS011;56727;47.188;8.840;2023-12-28T04:28:30;4.90;;;0.80;;
69529;SDS011;56727;47.188;8.840;2023-12-28T04:30:55;3.90;;;0.70;;
69529;SDS011;56727;47.188;8.840;2023-12-28T04:33:22;4.70;;;0.90;;
69529;SDS011;56727;47.188;8.840;2023-12-28T04:35:48;5.30;;;0.70;;
69529;SDS011;56727;47.188;8.840;2023-12-28T04:38:14;3.90;;;0.70;;
69529;SDS011;56727;47.188;8.840;2023-12-28T04:40:40;4.10;;;0.70;;
69529;SDS011;56727;47.188;8.840;2023-12-28T04:43:07;4.50;;;0.70;;
69529;SDS011;56727;47.188;8.840;2023-12-28T04:45:33;4.40;;;0.60;;
69529;SDS011;56727;47.188;8.840;2023-12-28T04:47:59;3.50;;;0.60;;
69529;SDS011;56727;47.188;8.840;2023-12-28T04:50:26;3.60;;;0.70;;
69529;SDS011;56727;47.188;8.840;2023-12-28T04:52:52;2.60;;;0.40;;
69529;SDS011;56727;47.188;8.840;2023-12-28T04:55:18;2.60;;;0.40;;
69529;SDS011;56727;47.188;8.840;2023-12-28T04:57:44;3.20;;;0.60;;
69529;SDS011;56727;47.188;8.840;2023-12-28T05:00:10;2.80;;;0.50;;
69529;SDS011;56727;47.188;8.840;2023-12-28T05:02:37;3.90;;;0.60;;
69529;SDS011;56727;47.188;8.840;2023-12-28T05:05:03;4.10;;;0.50;;
69529;SDS011;56727;47.188;8.840;2023-12-28T05:07:29;3.60;;;0.50;;
69529;SDS011;56727;47.188;8.840;2023-12-28T05:09:55;3.30;;;0.50;;
69529;SDS011;56727;47.188;8.840;2023-12-28T05:12:21;3.10;;;0.50;;
69529;SDS011;56727;47.188;8.840;2023-12-28T05:14:47;3.80;;;0.50;;
69529;SDS011;56727;47.188;8.840;2023-12-28T05:17:13;4.00;;;0.70;;
69529;SDS011;56727;47.188;8.840;2023-12-28T05:19:38;3.70;;;0.50;;
69529;SDS011;56727;47.188;8.840;2023-12-28T05:22:04;2.90;;;0.50;;
69529;SDS011;56727;47.188;8.840;2023-12-28T05:24:32;4.10;;;0.70;;
69529;SDS011;56727;47.188;8.840;2023-12-28T05:26:58;3.00;;;0.50;;
69529;SDS011;56727;47.188;8.840;2023-12-28T05:29:24;3.10;;;0.50;;
69529;SDS011;56727;47.188;8.840;2023-12-28T05:31:50;3.00;;;0.40;;
69529;SDS011;56727;47.188;8.840;2023-12-28T05:34:16;3.20;;;0.40;;
69529;SDS011;56727;47.188;8.840;2023-12-28T05:36:41;3.00;;;0.50;;
69529;SDS011;56727;47.188;8.840;2023-12-28T05:39:11;4.30;;;0.40;;
69529;SDS011;56727;47.188;8.840;2023-12-28T05:41:39;3.10;;;0.40;;
69529;SDS011;56727;47.188;8.840;2023-12-28T05:44:06;2.20;;;0.30;;
69529;SDS011;56727;47.188;8.840;2023-12-28T05:46:32;1.90;;;0.20;;
69529;SDS011;56727;47.188;8.840;2023-12-28T05:48:58;2.70;;;0.30;;
69529;SDS011;56727;47.188;8.840;2023-12-28T05:51:24;3.90;;;0.40;;
69529;SDS011;56727;47.188;8.840;2023-12-28T05:53:49;3.00;;;0.30;;
69529;SDS011;56727;47.188;8.840;2023-12-28T05:56:15;5.20;;;0.50;;
69529;SDS011;56727;47.188;8.840;2023-12-28T05:58:41;3.70;;;0.70;;
69529;SDS011;56727;47.188;8.840;2023-12-28T06:01:07;2.80;;;0.40;;
69529;SDS011;56727;47.188;8.840;2023-12-28T06:03:33;2.50;;;0.40;;
69529;SDS011;56727;47.188;8.840;2023-12-28T06:05:59;2.40;;;0.30;;
69529;SDS011;56727;47.188;8.840;2023-12-28T06:08:25;3.20;;;0.40;;
69529;SDS011;56727;47.188;8.840;2023-12-28T06:10:51;3.10;;;0.40;;
69529;SDS011;56727;47.188;8.840;2023-12-28T06:13:17;3.80;;;0.50;;
69529;SDS011;56727;47.188;8.840;2023-12-28T06:15:43;3.10;;;0.40;;
69529;SDS011;56727;47.188;8.840;2023-12-28T06:18:09;4.40;;;0.60;;
69529;SDS011;56727;47.188;8.840;2023-12-28T06:20:35;4.30;;;0.70;;
69529;SDS011;56727;47.188;8.840;2023-12-28T06:23:02;3.10;;;0.40;;
69529;SDS011;56727;47.188;8.840;2023-12-28T06:25:28;4.20;;;0.50;;
69529;SDS011;56727;47.188;8.840;2023-12-28T06:27:54;3.50;;;0.60;;
69529;SDS011;56727;47.188;8.840;2023-12-28T06:30:19;4.10;;;0.50;;
69529;SDS011;56727;47.188;8.840;2023-12-28T06:32:45;4.80;;;0.70;;
69529;SDS011;56727;47.188;8.840;2023-12-28T06:35:11;4.90;;;0.60;;
69529;SDS011;56727;47.188;8.840;2023-12-28T06:37:37;4.00;;;0.60;;
69529;SDS011;56727;47.188;8.840;2023-12-28T06:40:03;2.20;;;0.30;;
69529;SDS011;56727;47.188;8.840;2023-12-28T06:42:30;4.30;;;0.40;;
69529;SDS011;56727;47.188;8.840;2023-12-28T06:44:55;3.50;;;0.50;;
69529;SDS011;56727;47.188;8.840;2023-12-28T06:47:21;3.00;;;0.40;;
69529;SDS011;56727;47.188;8.840;2023-12-28T06:49:47;4.60;;;0.40;;
69529;SDS011;56727;47.188;8.840;2023-12-28T06:52:13;4.30;;;0.70;;
69529;SDS011;56727;47.188;8.840;2023-12-28T06:54:39;2.80;;;0.40;;
69529;SDS011;56727;47.188;8.840;2023-12-28T06:57:04;5.10;;;0.50;;
69529;SDS011;56727;47.188;8.840;2023-12-28T06:59:30;4.10;;;0.40;;
69529;SDS011;56727;47.188;8.840;2023-12-28T07:01:56;2.90;;;0.50;;
69529;SDS011;56727;47.188;8.840;2023-12-28T07:04:22;3.80;;;0.60;;
69529;SDS011;56727;47.188;8.840;2023-12-28T07:06:51;3.10;;;0.50;;
69529;SDS011;56727;47.188;8.840;2023-12-28T07:09:16;3.40;;;0.50;;
69529;SDS011;56727;47.188;8.840;2023-12-28T07:11:42;3.90;;;0.60;;
69529;SDS011;56727;47.188;8.840;2023-12-28T07:14:08;3.80;;;0.50;;
69529;SDS011;56727;47.188;8.840;2023-12-28T07:16:34;3.20;;;0.50;;
69529;SDS011;56727;47.188;8.840;2023-12-28T07:18:59;3.10;;;0.60;;
69529;SDS011;56727;47.188;8.840;2023-12-28T07:21:25;3.30;;;0.40;;
69529;SDS011;56727;47.188;8.840;2023-12-28T07:23:51;3.40;;;0.60;;
69529;SDS011;56727;47.188;8.840;2023-12-28T07:26:17;3.30;;;0.50;;
69529;SDS011;56727;47.188;8.840;2023-12-28T07:28:43;5.70;;;0.70;;
69529;SDS011;56727;47.188;8.840;2023-12-28T07:31:10;6.40;;;0.70;;
69529;SDS011;56727;47.188;8.840;2023-12-28T07:33:36;4.50;;;0.60;;
69529;SDS011;56727;47.188;8.840;2023-12-28T07:36:02;4.10;;;0.70;;
69529;SDS011;56727;47.188;8.840;2023-12-28T07:38:29;3.90;;;0.60;;
69529;SDS011;56727;47.188;8.840;2023-12-28T07:40:55;3.80;;;0.60;;
69529;SDS011;56727;47.188;8.840;2023-12-28T07:43:21;4.90;;;0.50;;
69529;SDS011;56727;47.188;8.840;2023-12-28T07:45:47;3.20;;;0.50;;
69529;SDS011;56727;47.188;8.840;2023-12-28T07:48:13;4.60;;;0.70;;
69529;SDS011;56727;47.188;8.840;2023-12-28T07:50:38;4.10;;;0.50;;
69529;SDS011;56727;47.188;8.840;2023-12-28T07:53:04;2.80;;;0.50;;
69529;SDS011;56727;47.188;8.840;2023-12-28T07:55:30;3.30;;;0.60;;
69529;SDS011;56727;47.188;8.840;2023-12-28T07:57:56;4.20;;;0.50;;
69529;SDS011;56727;47.188;8.840;2023-12-28T08:00:22;3.10;;;0.30;;
69529;SDS011;56727;47.188;8.840;2023-12-28T08:02:47;3.20;;;0.30;;
69529;SDS011;56727;47.188;8.840;2023-12-28T08:05:13;3.20;;;0.60;;
69529;SDS011;56727;47.188;8.840;2023-12-28T08:07:39;3.00;;;0.60;;
69529;SDS011;56727;47.188;8.840;2023-12-28T08:10:06;2.70;;;0.50;;
69529;SDS011;56727;47.188;8.840;2023-12-28T08:12:32;4.00;;;0.60;;
69529;SDS011;56727;47.188;8.840;2023-12-28T08:14:59;4.80;;;0.80;;
69529;SDS011;56727;47.188;8.840;2023-12-28T08:17:25;4.40;;;0.90;;
69529;SDS011;56727;47.188;8.840;2023-12-28T08:19:51;4.40;;;0.90;;
69529;SDS011;56727;47.188;8.840;2023-12-28T08:22:17;5.00;;;1.00;;
69529;SDS011;56727;47.188;8.840;2023-12-28T08:24:43;5.10;;;0.80;;
69529;SDS011;56727;47.188;8.840;2023-12-28T08:27:09;6.10;;;1.10;;
69529;SDS011;56727;47.188;8.840;2023-12-28T08:29:34;5.10;;;1.20;;
69529;SDS011;56727;47.188;8.840;2023-12-28T08:32:00;4.80;;;0.90;;
69529;SDS011;56727;47.188;8.840;2023-12-28T08:34:26;4.40;;;1.00;;
69529;SDS011;56727;47.188;8.840;2023-12-28T08:36:53;5.80;;;1.50;;
69529;SDS011;56727;47.188;8.840;2023-12-28T08:39:19;5.00;;;1.00;;
69529;SDS011;56727;47.188;8.840;2023-12-28T08:41:45;6.90;;;1.50;;
69529;SDS011;56727;47.188;8.840;2023-12-28T08:44:11;4.80;;;1.10;;
69529;SDS011;56727;47.188;8.840;2023-12-28T08:46:36;5.30;;;1.10;;
69529;SDS011;56727;47.188;8.840;2023-12-28T08:49:02;5.40;;;1.20;;
69529;SDS011;56727;47.188;8.840;2023-12-28T08:51:28;5.60;;;1.30;;
69529;SDS011;56727;47.188;8.840;2023-12-28T08:53:54;5.40;;;1.20;;
69529;SDS011;56727;47.188;8.840;2023-12-28T08:56:21;5.30;;;1.20;;
69529;SDS011;56727;47.188;8.840;2023-12-28T08:58:48;6.70;;;1.20;;
69529;SDS011;56727;47.188;8.840;2023-12-28T09:01:21;5.90;;;1.10;;
69529;SDS011;56727;47.188;8.840;2023-12-28T09:03:51;4.20;;;0.90;;
69529;SDS011;56727;47.188;8.840;2023-12-28T09:06:19;5.10;;;1.10;;
69529;SDS011;56727;47.188;8.840;2023-12-28T09:08:48;5.40;;;1.20;;
69529;SDS011;56727;47.188;8.840;2023-12-28T09:11:16;4.50;;;0.80;;
69529;SDS011;56727;47.188;8.840;2023-12-28T09:13:42;4.50;;;1.00;;
69529;SDS011;56727;47.188;8.840;2023-12-28T09:16:11;4.60;;;0.80;;
69529;SDS011;56727;47.188;8.840;2023-12-28T09:18:39;6.60;;;1.30;;
69529;SDS011;56727;47.188;8.840;2023-12-28T09:21:07;7.40;;;1.40;;
69529;SDS011;56727;47.188;8.840;2023-12-28T09:23:34;5.50;;;1.10;;
69529;SDS011;56727;47.188;8.840;2023-12-28T09:26:02;5.80;;;1.10;;
69529;SDS011;56727;47.188;8.840;2023-12-28T09:28:29;5.70;;;1.40;;
69529;SDS011;56727;47.188;8.840;2023-12-28T09:30:55;8.60;;;2.00;;
69529;SDS011;56727;47.188;8.840;2023-12-28T09:33:22;5.90;;;1.50;;
69529;SDS011;56727;47.188;8.840;2023-12-28T09:35:48;5.10;;;1.10;;
69529;SDS011;56727;47.188;8.840;2023-12-28T09:38:14;5.20;;;1.10;;
69529;SDS011;56727;47.188;8.840;2023-12-28T09:40:44;6.30;;;1.50;;
69529;SDS011;56727;47.188;8.840;2023-12-28T09:43:18;5.80;;;1.40;;
69529;SDS011;56727;47.188;8.840;2023-12-28T09:46:06;5.20;;;1.20;;
69529;SDS011;56727;47.188;8.840;2023-12-28T09:48:37;5.00;;;1.30;;
69529;SDS011;56727;47.188;8.840;2023-12-28T09:51:06;4.80;;;1.20;;
69529;SDS011;56727;47.188;8.840;2023-12-28T09:53:32;4.70;;;1.30;;
69529;SDS011;56727;47.188;8.840;2023-12-28T09:55:59;5.70;;;1.10;;
69529;SDS011;56727;47.188;8.840;2023-12-28T09:58:26;5.80;;;1.50;;
69529;SDS011;56727;47.188;8.840;2023-12-28T10:00:53;5.90;;;1.90;;
69529;SDS011;56727;47.188;8.840;2023-12-28T10:03:19;5.80;;;1.50;;
69529;SDS011;56727;47.188;8.840;2023-12-28T10:05:46;5.70;;;1.60;;
69529;SDS011;56727;47.188;8.840;2023-12-28T10:08:13;5.70;;;1.70;;
69529;SDS011;56727;47.188;8.840;2023-12-28T10:10:40;5.40;;;1.40;;
69529;SDS011;56727;47.188;8.840;2023-12-28T10:13:08;4.60;;;1.10;;
69529;SDS011;56727;47.188;8.840;2023-12-28T10:15:37;5.90;;;1.50;;
69529;SDS011;56727;47.188;8.840;2023-12-28T10:18:04;6.20;;;1.70;;
69529;SDS011;56727;47.188;8.840;2023-12-28T10:20:31;5.50;;;1.60;;
69529;SDS011;56727;47.188;8.840;2023-12-28T10:22:59;5.30;;;1.60;;
69529;SDS011;56727;47.188;8.840;2023-12-28T10:25:25;5.90;;;1.30;;
69529;SDS011;56727;47.188;8.840;2023-12-28T10:27:52;5.60;;;1.80;;
69529;SDS011;56727;47.188;8.840;2023-12-28T10:30:22;5.70;;;1.40;;
69529;SDS011;56727;47.188;8.840;2023-12-28T10:32:48;6.50;;;1.60;;
69529;SDS011;56727;47.188;8.840;2023-12-28T10:35:15;5.10;;;1.40;;
69529;SDS011;56727;47.188;8.840;2023-12-28T10:37:42;6.50;;;1.30;;
69529;SDS011;56727;47.188;8.840;2023-12-28T10:40:12;6.60;;;1.20;;
69529;SDS011;56727;47.188;8.840;2023-12-28T10:43:05;5.80;;;1.40;;
69529;SDS011;56727;47.188;8.840;2023-12-28T10:45:33;5.80;;;1.30;;
69529;SDS011;56727;47.188;8.840;2023-12-28T10:48:10;7.10;;;1.30;;
69529;SDS011;56727;47.188;8.840;2023-12-28T10:50:39;9.70;;;1.40;;
69529;SDS011;56727;47.188;8.840;2023-12-28T10:53:38;6.00;;;1.70;;
69529;SDS011;56727;47.188;8.840;2023-12-28T10:56:41;5.60;;;1.80;;
69529;SDS011;56727;47.188;8.840;2023-12-28T10:59:39;6.60;;;1.70;;
69529;SDS011;56727;47.188;8.840;2023-12-28T11:02:21;6.90;;;1.90;;
69529;SDS011;56727;47.188;8.840;2023-12-28T11:04:53;6.30;;;1.80;;
69529;SDS011;56727;47.188;8.840;2023-12-28T11:07:21;7.10;;;2.10;;
69529;SDS011;56727;47.188;8.840;2023-12-28T11:09:48;6.50;;;2.30;;
69529;SDS011;56727;47.188;8.840;2023-12-28T11:12:16;7.20;;;2.20;;
69529;SDS011;56727;47.188;8.840;2023-12-28T11:14:47;6.50;;;2.00;;
69529;SDS011;56727;47.188;8.840;2023-12-28T11:17:15;7.00;;;2.00;;
69529;SDS011;56727;47.188;8.840;2023-12-28T11:19:42;9.60;;;1.80;;
69529;SDS011;56727;47.188;8.840;2023-12-28T11:22:09;6.90;;;1.70;;
69529;SDS011;56727;47.188;8.840;2023-12-28T11:24:35;7.10;;;1.70;;
69529;SDS011;56727;47.188;8.840;2023-12-28T11:27:02;7.90;;;1.50;;
69529;SDS011;56727;47.188;8.840;2023-12-28T11:29:30;7.10;;;1.60;;
69529;SDS011;56727;47.188;8.840;2023-12-28T11:31:59;5.30;;;1.40;;
69529;SDS011;56727;47.188;8.840;2023-12-28T11:34:30;4.80;;;1.10;;
69529;SDS011;56727;47.188;8.840;2023-12-28T11:37:04;6.90;;;1.80;;
69529;SDS011;56727;47.188;8.840;2023-12-28T11:39:35;9.40;;;2.00;;
69529;SDS011;56727;47.188;8.840;2023-12-28T11:42:06;7.30;;;1.70;;
69529;SDS011;56727;47.188;8.840;2023-12-28T11:44:41;7.00;;;1.50;;
69529;SDS011;56727;47.188;8.840;2023-12-28T11:47:20;6.30;;;1.60;;
69529;SDS011;56727;47.188;8.840;2023-12-28T11:49:48;6.90;;;1.70;;
69529;SDS011;56727;47.188;8.840;2023-12-28T11:52:30;7.80;;;2.30;;
69529;SDS011;56727;47.188;8.840;2023-12-28T11:54:57;7.20;;;2.00;;
69529;SDS011;56727;47.188;8.840;2023-12-28T11:57:25;6.60;;;1.30;;
69529;SDS011;56727;47.188;8.840;2023-12-28T11:59:59;5.40;;;1.50;;
69529;SDS011;56727;47.188;8.840;2023-12-28T12:02:26;6.40;;;1.80;;
69529;SDS011;56727;47.188;8.840;2023-12-28T12:04:56;5.20;;;1.40;;
69529;SDS011;56727;47.188;8.840;2023-12-28T12:07:27;6.70;;;1.60;;
69529;SDS011;56727;47.188;8.840;2023-12-28T12:09:57;5.30;;;1.50;;
69529;SDS011;56727;47.188;8.840;2023-12-28T12:12:24;5.80;;;1.50;;
69529;SDS011;56727;47.188;8.840;2023-12-28T12:14:51;7.30;;;2.20;;
69529;SDS011;56727;47.188;8.840;2023-12-28T12:17:17;7.20;;;2.20;;
69529;SDS011;56727;47.188;8.840;2023-12-28T12:19:44;6.10;;;2.10;;
69529;SDS011;56727;47.188;8.840;2023-12-28T12:22:15;6.00;;;1.90;;
69529;SDS011;56727;47.188;8.840;2023-12-28T12:24:44;6.00;;;1.70;;
69529;SDS011;56727;47.188;8.840;2023-12-28T12:27:12;5.10;;;1.50;;
69529;SDS011;56727;47.188;8.840;2023-12-28T12:29:38;7.30;;;1.60;;
69529;SDS011;56727;47.188;8.840;2023-12-28T12:32:04;6.20;;;1.70;;
69529;SDS011;56727;47.188;8.840;2023-12-28T12:34:30;8.50;;;2.00;;
69529;SDS011;56727;47.188;8.840;2023-12-28T12:36:56;6.60;;;2.00;;
69529;SDS011;56727;47.188;8.840;2023-12-28T12:39:23;5.40;;;1.40;;
69529;SDS011;56727;47.188;8.840;2023-12-28T12:41:50;5.80;;;1.50;;
69529;SDS011;56727;47.188;8.840;2023-12-28T12:44:19;7.10;;;1.40;;
69529;SDS011;56727;47.188;8.840;2023-12-28T12:46:46;5.60;;;1.30;;
69529;SDS011;56727;47.188;8.840;2023-12-28T12:49:12;5.70;;;1.40;;
69529;SDS011;56727;47.188;8.840;2023-12-28T12:51:38;5.90;;;1.40;;
69529;SDS011;56727;47.188;8.840;2023-12-28T12:54:07;5.10;;;1.40;;
69529;SDS011;56727;47.188;8.840;2023-12-28T12:56:34;6.70;;;1.50;;
69529;SDS011;56727;47.188;8.840;2023-12-28T12:59:00;6.70;;;1.20;;
69529;SDS011;56727;47.188;8.840;2023-12-28T13:01:26;4.60;;;1.10;;
69529;SDS011;56727;47.188;8.840;2023-12-28T13:03:52;5.20;;;1.40;;
69529;SDS011;56727;47.188;8.840;2023-12-28T13:06:18;6.50;;;1.50;;
69529;SDS011;56727;47.188;8.840;2023-12-28T13:08:48;5.60;;;1.70;;
69529;SDS011;56727;47.188;8.840;2023-12-28T13:11:14;6.10;;;1.60;;
69529;SDS011;56727;47.188;8.840;2023-12-28T13:13:41;5.10;;;1.30;;
69529;SDS011;56727;47.188;8.840;2023-12-28T13:16:07;4.50;;;1.10;;
69529;SDS011;56727;47.188;8.840;2023-12-28T13:18:33;5.20;;;1.30;;
69529;SDS011;56727;47.188;8.840;2023-12-28T13:21:01;5.50;;;1.30;;
69529;SDS011;56727;47.188;8.840;2023-12-28T13:23:28;5.10;;;1.30;;
69529;SDS011;56727;47.188;8.840;2023-12-28T13:25:54;5.40;;;1.30;;
69529;SDS011;56727;47.188;8.840;2023-12-28T13:28:20;4.00;;;1.10;;
69529;SDS011;56727;47.188;8.840;2023-12-28T13:30:46;4.50;;;1.20;;
69529;SDS011;56727;47.188;8.840;2023-12-28T13:33:12;6.30;;;0.90;;
69529;SDS011;56727;47.188;8.840;2023-12-28T13:35:38;5.80;;;1.00;;
69529;SDS011;56727;47.188;8.840;2023-12-28T13:38:03;6.60;;;1.20;;
69529;SDS011;56727;47.188;8.840;2023-12-28T13:40:29;5.70;;;1.70;;
69529;SDS011;56727;47.188;8.840;2023-12-28T13:42:58;5.90;;;1.60;;
69529;SDS011;56727;47.188;8.840;2023-12-28T13:45:24;5.40;;;1.30;;
69529;SDS011;56727;47.188;8.840;2023-12-28T13:47:50;5.40;;;1.20;;
69529;SDS011;56727;47.188;8.840;2023-12-28T13:50:16;4.70;;;1.40;;
69529;SDS011;56727;47.188;8.840;2023-12-28T13:52:42;5.10;;;1.30;;
69529;SDS011;56727;47.188;8.840;2023-12-28T13:55:08;5.40;;;1.40;;
69529;SDS011;56727;47.188;8.840;2023-12-28T13:57:33;6.60;;;1.90;;
69529;SDS011;56727;47.188;8.840;2023-12-28T13:59:59;6.20;;;1.70;;
69529;SDS011;56727;47.188;8.840;2023-12-28T14:02:27;5.80;;;1.40;;
69529;SDS011;56727;47.188;8.840;2023-12-28T14:04:52;5.30;;;1.40;;
69529;SDS011;56727;47.188;8.840;2023-12-28T14:07:22;5.60;;;1.50;;
69529;SDS011;56727;47.188;8.840;2023-12-28T14:09:48;6.00;;;1.30;;
69529;SDS011;56727;47.188;8.840;2023-12-28T14:12:14;6.20;;;1.30;;
69529;SDS011;56727;47.188;8.840;2023-12-28T14:14:40;5.90;;;1.50;;
69529;SDS011;56727;47.188;8.840;2023-12-28T14:17:06;6.10;;;1.70;;
69529;SDS011;56727;47.188;8.840;2023-12-28T14:19:32;6.50;;;1.70;;
69529;SDS011;56727;47.188;8.840;2023-12-28T14:21:59;7.30;;;1.80;;
69529;SDS011;56727;47.188;8.840;2023-12-28T14:24:26;5.00;;;1.50;;
69529;SDS011;56727;47.188;8.840;2023-12-28T14:26:56;6.00;;;1.70;;
69529;SDS011;56727;47.188;8.840;2023-12-28T14:29:23;5.70;;;1.60;;
69529;SDS011;56727;47.188;8.840;2023-12-28T14:31:49;5.30;;;1.50;;
69529;SDS011;56727;47.188;8.840;2023-12-28T14:34:16;7.20;;;1.60;;
69529;SDS011;56727;47.188;8.840;2023-12-28T14:36:44;4.60;;;1.50;;
69529;SDS011;56727;47.188;8.840;2023-12-28T14:39:15;7.30;;;2.10;;
69529;SDS011;56727;47.188;8.840;2023-12-28T14:41:45;6.90;;;2.50;;
69529;SDS011;56727;47.188;8.840;2023-12-28T14:44:12;6.70;;;2.40;;
69529;SDS011;56727;47.188;8.840;2023-12-28T14:46:38;6.20;;;2.20;;
69529;SDS011;56727;47.188;8.840;2023-12-28T14:49:04;7.20;;;1.80;;
69529;SDS011;56727;47.188;8.840;2023-12-28T14:51:30;7.70;;;2.00;;